Time;durP1;ratioP1;P1;durP2;ratioP2;P2;SDS_P1;SDS_P2;PMS_P1;PMS_P2;Temp;Humidity;BMP_temperature;BMP_pressure;BME280_temperature;BME280_humidity;BME280_pressure;Samples;Min_cycle;Max_cycle;Signal;HPM_P1;HPM_P2
2022/06/20 00:02:02;;;;;;;11.15;3.08;;;;;;;14.05;82.53;101308.41;5072517;28;20086;-69
2022/06/20 00:04:28;;;;;;;10.20;3.15;;;;;;;13.95;83.00;101289.47;5071826;28;20464;-69
2022/06/20 00:06:53;;;;;;;12.07;3.17;;;;;;;13.88;82.64;101290.56;5072421;28;20024;-69
2022/06/20 00:09:19;;;;;;;11.05;3.40;;;;;;;13.88;82.05;101293.19;5072411;28;20020;-69
2022/06/20 00:11:47;;;;;;;7.22;2.60;;;;;;;13.89;83.88;101294.03;5071432;28;20024;-69
2022/06/20 00:14:16;;;;;;;12.45;2.85;;;;;;;13.79;82.33;101299.56;5072276;28;20485;-69
2022/06/20 00:16:42;;;;;;;10.55;2.92;;;;;;;13.79;83.67;101314.44;5071398;28;20044;-69
2022/06/20 00:19:09;;;;;;;14.38;3.45;;;;;;;13.74;82.91;101305.84;5072271;28;20020;-69
2022/06/20 00:21:35;;;;;;;10.48;2.70;;;;;;;13.77;83.92;101317.09;5072178;28;20043;-69
2022/06/20 00:24:01;;;;;;;9.35;2.95;;;;;;;13.74;83.62;101343.41;5071742;28;20488;-69
2022/06/20 00:26:26;;;;;;;12.10;3.92;;;;;;;13.72;82.14;101373.16;5072090;28;20033;-69
2022/06/20 00:28:51;;;;;;;9.02;2.85;;;;;;;13.74;84.03;101364.34;5071972;28;20082;-69
2022/06/20 00:31:17;;;;;;;9.30;2.95;;;;;;;13.74;83.59;101366.97;5071849;28;20036;-69
2022/06/20 00:33:42;;;;;;;11.88;3.10;;;;;;;13.74;83.66;101385.31;5071863;28;20021;-69
2022/06/20 00:36:07;;;;;;;8.57;3.20;;;;;;;13.72;85.29;101394.13;5072508;28;20025;-69
2022/06/20 00:38:35;;;;;;;11.15;3.20;;;;;;;13.65;85.50;101408.28;5073650;28;20024;-69
2022/06/20 00:41:07;;;;;;;12.35;3.75;;;;;;;13.62;86.34;101419.72;5075593;28;20428;-69
2022/06/20 00:43:37;;;;;;;8.32;3.00;;;;;;;13.53;86.28;101443.53;5075555;28;20020;-69
2022/06/20 00:46:08;;;;;;;7.63;2.60;;;;;;;13.48;86.54;101492.56;5075102;28;20374;-69
2022/06/20 00:48:42;;;;;;;7.63;2.85;;;;;;;13.41;87.43;101520.69;5075350;28;20025;-69
2022/06/20 00:51:34;;;;;;;15.40;2.97;;;;;;;13.29;88.36;101555.84;5075824;28;20029;-69
2022/06/20 00:54:11;;;;;;;11.82;2.95;;;;;;;13.17;91.06;101590.13;5074490;28;20063;-69
2022/06/20 00:56:43;;;;;;;11.75;3.55;;;;;;;13.15;92.67;101567.53;5075466;28;20028;-69
2022/06/20 00:59:13;;;;;;;9.30;3.30;;;;;;;13.18;93.75;101530.78;5075130;28;20075;-69
2022/06/20 01:01:41;;;;;;;13.32;3.25;;;;;;;13.17;90.56;101519.44;5075091;28;20028;-69
2022/06/20 01:04:12;;;;;;;12.77;3.65;;;;;;;13.19;92.51;101485.41;5075378;28;20071;-69
2022/06/20 01:06:47;;;;;;;10.20;3.30;;;;;;;13.13;92.17;101491.63;5074780;28;20024;-70
2022/06/20 01:09:15;;;;;;;12.00;2.92;;;;;;;13.07;91.85;101481.28;5075282;28;20020;-69
2022/06/20 01:11:50;;;;;;;9.15;3.13;;;;;;;12.99;92.07;101463.16;5075170;28;20107;-69
2022/06/20 01:14:38;;;;;;;11.80;3.45;;;;;;;12.99;92.39;101452.69;5074409;28;20472;-69
2022/06/20 01:17:21;;;;;;;12.80;3.30;;;;;;;13.01;92.89;101431.72;5075200;28;20024;-69
2022/06/20 01:19:46;;;;;;;10.95;3.47;;;;;;;13.10;92.34;101428.88;5075001;28;20033;-69
2022/06/20 01:22:24;;;;;;;12.75;3.72;;;;;;;13.10;92.32;101426.25;5074352;28;20062;-69
2022/06/20 01:25:12;;;;;;;12.57;3.38;;;;;;;13.17;92.04;101409.50;5074922;28;20544;-69
2022/06/20 01:27:43;;;;;;;11.75;3.63;;;;;;;13.22;92.63;101415.47;5074007;28;20048;-69
2022/06/20 01:30:10;;;;;;;8.90;2.90;;;;;;;13.27;92.79;101394.44;5074866;28;20028;-69
2022/06/20 01:32:37;;;;;;;9.65;3.35;;;;;;;13.32;92.42;101397.81;5074645;28;20021;-69
2022/06/20 01:35:07;;;;;;;9.18;3.30;;;;;;;13.32;92.43;101397.81;5074248;28;20032;-69
2022/06/20 01:37:34;;;;;;;12.10;3.00;;;;;;;13.27;92.56;101403.16;5074293;28;20029;-69
2022/06/20 01:40:09;;;;;;;7.72;3.10;;;;;;;13.24;91.23;101387.56;5075021;28;20025;-69
2022/06/20 01:42:36;;;;;;;8.88;3.15;;;;;;;13.24;92.27;101379.69;5074029;28;20103;-69
2022/06/20 01:48:06;;;;;;;10.32;3.00;;;;;;;13.24;91.89;101363.06;5074602;28;20511;-69
2022/06/20 01:50:33;;;;;;;12.02;3.42;;;;;;;13.19;91.86;101359.72;5073555;28;20029;-69
2022/06/20 01:53:01;;;;;;;11.23;3.28;;;;;;;13.17;92.11;101354.50;5074633;28;20052;-69
2022/06/20 01:55:28;;;;;;;7.88;2.60;;;;;;;13.20;91.78;101351.81;5073939;28;20033;-69
2022/06/20 01:57:59;;;;;;;11.25;3.13;;;;;;;13.20;92.14;101359.66;5073905;28;20060;-69
2022/06/20 02:00:24;;;;;;;10.88;3.30;;;;;;;13.20;90.21;101359.66;5074344;28;20028;-69
2022/06/20 02:02:54;;;;;;;13.07;3.15;;;;;;;13.23;90.42;101356.13;5073315;28;20381;-69
2022/06/20 02:05:24;;;;;;;8.48;3.65;;;;;;;13.23;90.93;101346.50;5073908;28;20510;-69
2022/06/20 02:07:51;;;;;;;8.68;3.20;;;;;;;13.20;89.96;101340.50;5074047;28;20439;-69
2022/06/20 02:10:24;;;;;;;10.30;2.65;;;;;;;13.18;89.21;101331.81;5073468;28;20028;-69
2022/06/20 02:12:53;;;;;;;15.27;3.40;;;;;;;13.18;88.69;101326.56;5073897;28;20397;-69
2022/06/20 02:15:20;;;;;;;7.57;2.72;;;;;;;13.10;87.19;101326.78;5073916;28;20029;-69
2022/06/20 02:17:48;;;;;;;10.18;3.08;;;;;;;13.06;88.38;101307.69;5072952;28;20109;-69
2022/06/20 02:20:21;;;;;;;9.98;3.45;;;;;;;13.16;87.05;101312.69;5074140;28;20024;-69
2022/06/20 02:22:49;;;;;;;12.15;3.08;;;;;;;13.11;87.92;101302.31;5073646;28;20050;-69
2022/06/20 02:25:19;;;;;;;8.43;2.60;;;;;;;13.10;87.54;101298.00;5073045;28;20017;-69
2022/06/20 02:27:54;;;;;;;8.70;2.85;;;;;;;13.12;88.77;101296.19;5073586;28;20025;-69
2022/06/20 02:30:20;;;;;;;8.07;3.08;;;;;;;13.10;87.03;101298.00;5073500;28;20032;-69
2022/06/20 02:32:55;;;;;;;10.05;2.58;;;;;;;13.08;86.81;101310.28;5073341;28;20369;-69
2022/06/20 02:35:21;;;;;;;8.27;2.60;;;;;;;13.03;85.96;101312.13;5073812;28;20035;-69
2022/06/20 02:37:48;;;;;;;10.05;2.90;;;;;;;13.02;86.12;101313.91;5072753;28;20024;-69
2022/06/20 02:40:17;;;;;;;8.38;3.15;;;;;;;13.02;86.19;101299.97;5073218;28;20376;-69
2022/06/20 02:42:51;;;;;;;6.55;2.92;;;;;;;12.99;85.78;101305.28;5073423;28;20056;-69
2022/06/20 02:45:18;;;;;;;8.18;2.35;;;;;;;12.96;84.91;101305.34;5072863;28;20063;-69
2022/06/20 02:47:47;;;;;;;9.80;3.05;;;;;;;12.89;85.24;101292.44;5073260;28;20376;-69
2022/06/20 02:50:18;;;;;;;8.80;2.60;;;;;;;12.89;85.82;101294.19;5073344;28;20032;-69
2022/06/20 02:53:05;;;;;;;10.25;2.78;;;;;;;12.86;85.58;101278.56;5072011;28;20048;-69
2022/06/20 02:55:34;;;;;;;9.90;2.63;;;;;;;12.84;86.26;101259.41;5073452;28;20064;-69
2022/06/20 02:58:06;;;;;;;11.43;2.92;;;;;;;12.86;85.69;101262.88;5073637;28;20031;-69
2022/06/20 03:00:42;;;;;;;10.02;2.55;;;;;;;12.84;86.02;101255.03;5072124;28;20032;-69
2022/06/20 03:03:15;;;;;;;8.65;2.83;;;;;;;12.86;85.37;101258.50;5073235;28;20020;-69
2022/06/20 03:05:40;;;;;;;11.65;2.75;;;;;;;12.83;85.85;101253.34;5072209;28;20131;-69
2022/06/20 03:08:06;;;;;;;4.57;2.03;;;;;;;12.82;85.08;101256.84;5073048;28;20528;-69
2022/06/20 03:10:41;;;;;;;13.32;3.65;;;;;;;12.81;85.22;101270.81;5073168;28;20024;-69
2022/06/20 03:13:08;;;;;;;9.10;2.33;;;;;;;12.84;86.12;101278.59;5072479;28;20032;-69
2022/06/20 03:15:35;;;;;;;8.38;2.20;;;;;;;12.80;85.04;101276.97;5072413;28;20028;-69
2022/06/20 03:18:04;;;;;;;7.97;2.70;;;;;;;12.78;85.14;101270.88;5072980;28;20526;-69
2022/06/20 03:20:29;;;;;;;10.90;2.65;;;;;;;12.72;84.74;101272.81;5072345;28;20025;-69
2022/06/20 03:23:02;;;;;;;6.53;2.90;;;;;;;12.69;83.52;101292.09;5072558;28;20376;-69
2022/06/20 03:25:28;;;;;;;6.03;2.25;;;;;;;12.69;84.30;101302.53;5073146;28;20032;-69
2022/06/20 03:27:53;;;;;;;6.60;2.22;;;;;;;12.65;84.34;101301.75;5071768;28;20021;-69
2022/06/20 03:30:34;;;;;;;7.15;2.38;;;;;;;12.62;85.04;101293.09;5072786;28;20020;-69
2022/06/20 03:33:02;;;;;;;9.23;2.67;;;;;;;12.60;85.08;101290.53;5073067;28;20028;-69
2022/06/20 03:35:30;;;;;;;8.57;2.40;;;;;;;12.60;85.72;101306.22;5072087;28;20426;-69
2022/06/20 03:38:01;;;;;;;7.32;2.20;;;;;;;12.54;84.50;101321.22;5072471;28;20388;-69
2022/06/20 03:40:27;;;;;;;11.20;2.53;;;;;;;12.58;85.67;101328.94;5072717;28;20025;-69
2022/06/20 03:42:55;;;;;;;11.50;2.30;;;;;;;12.63;85.18;101329.69;5071593;28;20082;-69
2022/06/20 03:45:24;;;;;;;9.40;2.08;;;;;;;12.75;85.67;101344.25;5072923;28;20087;-69
2022/06/20 03:47:58;;;;;;;4.95;2.42;;;;;;;12.77;84.09;101345.06;5072053;28;20150;-69
2022/06/20 03:50:42;;;;;;;9.20;2.15;;;;;;;12.83;84.81;101362.38;5072527;28;20040;-69
2022/06/20 03:53:16;;;;;;;9.45;2.63;;;;;;;12.88;85.44;101360.47;5072501;28;20067;-69
2022/06/20 03:56:17;;;;;;;7.78;2.25;;;;;;;12.92;85.55;101369.16;5071539;28;20070;-69
2022/06/20 03:58:50;;;;;;;6.10;2.10;;;;;;;12.94;84.23;101365.56;5071999;28;20040;-69
2022/06/20 04:01:22;;;;;;;7.18;2.28;;;;;;;12.91;83.94;101359.56;5072610;28;20035;-69
2022/06/20 04:04:02;;;;;;;7.15;2.40;;;;;;;12.94;84.48;101367.34;5071393;28;20049;-69
2022/06/20 04:06:31;;;;;;;8.07;2.63;;;;;;;12.93;85.54;101378.72;5072515;28;20469;-69
2022/06/20 04:12:34;;;;;;;12.18;2.13;;;;;;;13.09;85.09;101369.56;5073046;28;20071;-69
2022/06/20 04:15:03;;;;;;;6.10;1.83;;;;;;;13.12;84.75;101366.88;5076547;28;20143;-69
2022/06/20 04:18:27;;;;;;;5.18;1.90;;;;;;;13.18;84.40;101377.19;5075514;28;20028;-69
2022/06/20 04:21:27;;;;;;;9.40;2.55;;;;;;;13.20;84.40;101382.38;5076202;28;20029;-69
2022/06/20 04:24:03;;;;;;;10.05;2.47;;;;;;;13.21;84.48;101394.56;5075200;28;20037;-69
2022/06/20 04:27:04;;;;;;;8.55;2.38;;;;;;;13.23;85.18;101393.63;5076049;28;20485;-69
2022/06/20 04:29:54;;;;;;;9.35;2.45;;;;;;;13.27;85.04;101399.69;5075881;28;20085;-69
2022/06/20 04:32:56;;;;;;;8.68;2.00;;;;;;;13.25;85.60;101404.13;5076027;28;20071;-69
2022/06/20 04:35:58;;;;;;;12.00;2.67;;;;;;;13.19;85.70;101397.22;5075959;28;20020;-69
2022/06/20 04:38:30;;;;;;;10.15;2.47;;;;;;;13.23;87.13;101406.72;5068162;28;20048;-69
2022/06/20 04:41:13;;;;;;;6.32;2.10;;;;;;;13.23;86.85;101393.63;5075604;28;20050;-69
2022/06/20 04:43:48;;;;;;;10.75;2.83;;;;;;;13.20;86.54;101391.09;5075728;28;20150;-69
2022/06/20 04:46:27;;;;;;;9.48;2.70;;;;;;;13.29;87.23;101411.84;5075621;28;20051;-69
2022/06/20 04:48:52;;;;;;;8.50;2.50;;;;;;;13.33;86.42;101415.22;5075484;28;20025;-69
2022/06/20 04:51:22;;;;;;;10.63;3.20;;;;;;;13.38;86.89;101417.75;5075255;28;20346;-69
2022/06/20 04:53:49;;;;;;;8.98;2.83;;;;;;;13.41;86.82;101423.78;5075009;28;20139;-69
2022/06/20 04:56:16;;;;;;;8.25;2.53;;;;;;;13.56;87.67;101425.97;5075655;28;20104;-69
2022/06/20 04:58:47;;;;;;;9.35;2.65;;;;;;;13.66;86.78;101429.19;5074397;28;20056;-69
2022/06/20 05:01:12;;;;;;;9.40;2.90;;;;;;;13.71;86.34;101424.72;5075637;28;20032;-69
2022/06/20 05:03:56;;;;;;;7.70;2.35;;;;;;;13.80;86.35;101421.84;5075201;28;20013;-69
2022/06/20 05:06:27;;;;;;;8.73;2.83;;;;;;;13.86;86.24;101427.78;5074684;28;20411;-69
2022/06/20 05:08:57;;;;;;;12.77;3.05;;;;;;;13.91;86.07;101429.41;5075315;28;20039;-69
2022/06/20 05:11:32;;;;;;;8.85;2.80;;;;;;;13.97;85.38;101424.00;5075435;28;20033;-69
2022/06/20 05:14:14;;;;;;;10.80;2.90;;;;;;;14.01;85.67;101425.59;5074452;28;20548;-69
2022/06/20 05:16:45;;;;;;;12.77;2.80;;;;;;;14.02;85.82;101424.69;5074897;28;20079;-69
2022/06/20 05:19:32;;;;;;;6.47;3.25;;;;;;;14.12;85.19;101437.56;5074782;28;20070;-69
2022/06/20 05:22:08;;;;;;;7.30;3.00;;;;;;;14.12;84.53;101429.69;5074796;28;20527;-69
2022/06/20 05:24:37;;;;;;;12.20;3.05;;;;;;;14.10;84.77;101445.47;5074958;28;20041;-69
2022/06/20 05:27:11;;;;;;;8.90;2.83;;;;;;;14.08;84.95;101460.38;5074266;28;20032;-69
2022/06/20 05:29:40;;;;;;;8.73;2.83;;;;;;;14.08;85.05;101449.03;5074859;28;20024;-69
2022/06/20 05:32:11;;;;;;;10.63;2.60;;;;;;;14.08;85.27;101442.03;5075080;28;20020;-69
2022/06/20 05:35:02;;;;;;;12.60;3.10;;;;;;;14.17;86.69;101440.91;5073804;28;20034;-69
2022/06/20 05:37:44;;;;;;;11.55;3.58;;;;;;;14.20;86.07;101436.44;5074768;28;20024;-69
2022/06/20 05:40:22;;;;;;;9.57;2.88;;;;;;;14.19;84.46;101428.59;5074491;28;20035;-69
2022/06/20 05:42:47;;;;;;;7.22;2.65;;;;;;;14.17;85.24;101420.78;5074256;28;20027;-69
2022/06/20 05:45:15;;;;;;;7.57;2.92;;;;;;;14.17;86.30;101426.03;5075336;28;20108;-69
2022/06/20 05:47:43;;;;;;;8.68;2.92;;;;;;;14.11;85.47;101425.34;5073570;28;20029;-69
2022/06/20 05:50:14;;;;;;;13.57;3.35;;;;;;;14.12;85.43;101433.16;5074772;28;20377;-69
2022/06/20 05:52:42;;;;;;;10.02;3.28;;;;;;;14.12;85.88;101435.78;5074233;28;20119;-69
2022/06/20 05:55:32;;;;;;;12.35;3.08;;;;;;;14.19;85.52;101434.72;5073839;28;20040;-69
2022/06/20 05:57:59;;;;;;;9.00;3.15;;;;;;;14.27;85.37;101445.84;5074400;28;20016;-69
2022/06/20 06:00:29;;;;;;;11.63;4.20;;;;;;;14.32;82.94;101437.81;5074351;28;20038;-69
2022/06/20 06:03:02;;;;;;;7.85;3.00;;;;;;;14.44;84.15;101436.59;5073385;28;20028;-69
2022/06/20 06:05:34;;;;;;;;;;;;;;;14.63;83.15;101444.81;5074637;28;20028;-69
2022/06/20 06:08:25;;;;;;;12.73;3.33;;;;;;;14.78;82.79;101446.09;5074313;28;19913;-69
2022/06/20 06:11:19;;;;;;;6.35;2.85;;;;;;;14.84;80.61;101446.75;5073961;28;20032;-69
2022/06/20 06:13:54;;;;;;;11.40;2.83;;;;;;;14.83;80.58;101438.94;5073905;28;20419;-69
2022/06/20 06:16:46;;;;;;;7.70;2.78;;;;;;;14.79;80.08;101439.97;5073210;28;20468;-69
2022/06/20 06:19:23;;;;;;;7.05;2.75;;;;;;;14.92;81.59;101446.53;5073930;28;20043;-69
2022/06/20 06:21:50;;;;;;;8.82;2.95;;;;;;;14.97;79.26;101445.47;5073901;28;20109;-69
2022/06/20 06:24:20;;;;;;;9.13;3.50;;;;;;;15.02;79.94;101450.59;5073256;28;20037;-69
2022/06/20 06:26:48;;;;;;;7.57;2.92;;;;;;;15.10;79.15;101451.19;5073595;28;20416;-69
2022/06/20 06:29:19;;;;;;;6.03;2.60;;;;;;;15.25;79.61;101449.84;5073963;28;20032;-69
2022/06/20 06:31:46;;;;;;;8.27;2.75;;;;;;;15.31;78.20;101456.66;5073158;28;20039;-69
2022/06/20 06:34:21;;;;;;;8.00;2.40;;;;;;;15.33;75.36;101452.19;5073848;28;20101;-69
2022/06/20 06:36:53;;;;;;;8.27;2.67;;;;;;;15.20;76.12;101457.00;5072528;28;20241;-69
2022/06/20 06:39:25;;;;;;;6.65;2.00;;;;;;;15.07;74.54;101447.78;5073824;28;20025;-69
2022/06/20 06:41:55;;;;;;;7.18;2.65;;;;;;;14.89;76.11;101467.63;5073400;28;20047;-69
2022/06/20 06:44:51;;;;;;;8.55;2.25;;;;;;;14.78;77.29;101470.59;5072699;28;20472;-69
2022/06/20 06:47:34;;;;;;;5.75;2.13;;;;;;;14.67;77.77;101477.94;5068678;28;20499;-69
2022/06/20 06:50:13;;;;;;;7.57;2.80;;;;;;;14.76;79.09;101477.66;5073471;28;20380;-69
2022/06/20 06:52:51;;;;;;;8.35;2.70;;;;;;;14.89;77.68;101484.25;5072290;28;20302;-69
2022/06/20 06:55:17;;;;;;;3.75;2.22;;;;;;;15.14;77.33;101484.34;5073417;28;20025;-69
2022/06/20 06:57:47;;;;;;;6.10;2.30;;;;;;;15.35;77.01;101485.38;5072402;28;20533;-69
2022/06/20 07:00:35;;;;;;;6.38;2.35;;;;;;;15.51;77.55;101483.09;5072907;28;20468;-69
2022/06/20 07:03:10;;;;;;;5.88;2.85;;;;;;;15.77;73.82;101484.88;5073448;28;20012;-69
2022/06/20 07:05:42;;;;;;;4.75;2.08;;;;;;;15.88;72.07;101477.47;5071974;28;20447;-69
2022/06/20 07:08:21;;;;;;;6.60;2.45;;;;;;;16.01;71.85;101496.28;5073129;28;20043;-69
2022/06/20 07:10:52;;;;;;;8.10;2.40;;;;;;;16.12;68.25;101491.53;5072794;28;20021;-68
2022/06/20 07:13:32;;;;;;;8.30;2.13;;;;;;;16.12;69.16;101509.06;5072310;28;20024;-70
2022/06/20 07:16:00;;;;;;;8.82;2.30;;;;;;;16.04;68.39;101506.69;5073207;28;20024;-69
2022/06/20 07:18:43;;;;;;;5.18;2.10;;;;;;;15.90;70.85;101507.19;5072949;28;20028;-69
2022/06/20 07:21:15;;;;;;;4.10;1.98;;;;;;;15.68;72.12;101506.22;5072828;28;20369;-69
2022/06/20 07:23:43;;;;;;;9.60;2.30;;;;;;;15.40;71.30;101516.75;5072509;28;20381;-69
2022/06/20 07:26:10;;;;;;;4.70;1.95;;;;;;;15.12;73.76;101512.41;5072244;28;20013;-69
2022/06/20 07:28:41;;;;;;;6.30;2.20;;;;;;;14.91;74.36;101511.31;5072776;28;20115;-69
2022/06/20 07:31:26;;;;;;;8.85;2.63;;;;;;;14.74;74.56;101506.56;5073009;28;20029;-69
2022/06/20 07:33:56;;;;;;;7.43;2.10;;;;;;;14.75;75.09;101507.44;5071729;28;20066;-69
2022/06/20 07:36:27;;;;;;;7.57;2.40;;;;;;;14.90;73.04;101512.19;5072660;28;20384;-69
2022/06/20 07:38:59;;;;;;;6.78;2.53;;;;;;;15.04;72.83;101508.28;5072700;28;20059;-69
2022/06/20 07:41:31;;;;;;;3.92;1.65;;;;;;;15.32;73.08;101513.53;5072422;28;20028;-69
2022/06/20 07:44:39;;;;;;;5.45;2.20;;;;;;;15.96;73.26;101511.41;5072544;28;20028;-69
2022/06/20 07:47:31;;;;;;;6.50;2.20;;;;;;;16.58;67.84;101505.59;5049696;28;20025;-69
2022/06/20 07:50:02;;;;;;;8.15;2.53;;;;;;;16.88;65.96;101509.78;5054597;28;20091;-69
2022/06/20 07:52:38;;;;;;;6.07;2.78;;;;;;;16.75;67.32;101520.78;5069890;28;20040;-69
2022/06/20 07:55:08;;;;;;;7.32;2.13;;;;;;;16.38;65.52;101521.25;5075957;28;20033;-69
2022/06/20 07:57:39;;;;;;;6.07;2.35;;;;;;;15.96;67.06;101518.41;5076591;28;20110;-69
2022/06/20 08:00:07;;;;;;;5.55;1.90;;;;;;;15.74;68.56;101523.56;5076882;28;20062;-69
2022/06/20 08:02:40;;;;;;;4.07;2.03;;;;;;;15.62;69.88;101525.66;5075579;28;20021;-69
2022/06/20 08:05:06;;;;;;;2.35;1.63;;;;;;;15.71;69.09;101521.88;5076557;28;20082;-69
2022/06/20 08:07:40;;;;;;;8.32;2.55;;;;;;;15.84;66.88;101528.44;5076478;28;20491;-69
2022/06/20 08:10:15;;;;;;;6.50;2.00;;;;;;;16.13;65.88;101530.06;5075816;28;20032;-69
2022/06/20 08:12:59;;;;;;;5.50;1.90;;;;;;;16.79;59.67;101521.53;5076256;28;20056;-69
2022/06/20 08:15:28;;;;;;;5.55;1.90;;;;;;;17.53;61.15;101517.66;5075676;28;20040;-69
2022/06/20 08:17:54;;;;;;;6.18;2.28;;;;;;;17.78;55.03;101511.34;5076124;28;20476;-69
2022/06/20 08:20:23;;;;;;;6.00;2.45;;;;;;;17.67;57.46;101521.50;5076565;28;20022;-69
2022/06/20 08:22:58;;;;;;;5.93;1.98;;;;;;;17.61;60.29;101532.28;5075205;28;20028;-69
2022/06/20 08:25:31;;;;;;;6.40;2.00;;;;;;;17.67;62.02;101518.84;5076494;28;20028;-69
2022/06/20 08:28:04;;;;;;;4.68;2.28;;;;;;;17.59;61.71;101519.16;5075909;28;20108;-70
2022/06/20 08:30:42;;;;;;;8.90;2.53;;;;;;;17.47;62.87;101527.59;5075519;28;20028;-69
2022/06/20 08:33:36;;;;;;;5.00;2.60;;;;;;;17.37;63.70;101526.25;5076209;28;20271;-69
2022/06/20 08:36:05;;;;;;;6.00;2.22;;;;;;;16.95;62.43;101534.97;5075576;28;20070;-69
2022/06/20 08:38:36;;;;;;;4.65;2.53;;;;;;;16.56;64.45;101540.78;5075765;28;20099;-69
2022/06/20 08:41:25;;;;;;;9.02;2.50;;;;;;;16.48;65.76;101546.34;5076090;28;20031;-69
2022/06/20 08:44:15;;;;;;;9.75;2.80;;;;;;;16.73;62.36;101542.78;5074862;28;20059;-69
2022/06/20 08:47:06;;;;;;;5.05;2.50;;;;;;;17.51;62.21;101537.94;5075563;28;20103;-69
2022/06/20 08:49:59;;;;;;;4.95;2.45;;;;;;;18.15;54.97;101541.44;5075960;28;20035;-69
2022/06/20 08:52:33;;;;;;;4.97;2.17;;;;;;;18.79;56.47;101540.31;5075177;28;20404;-70
2022/06/20 08:55:28;;;;;;;8.63;2.30;;;;;;;19.23;53.42;101545.25;5075562;28;20487;-69
2022/06/20 08:58:16;;;;;;;7.22;2.25;;;;;;;19.26;56.63;101550.41;5074322;28;20029;-69
2022/06/20 09:01:02;;;;;;;7.43;2.63;;;;;;;18.87;57.34;101561.97;5075256;28;20036;-69
2022/06/20 09:04:05;;;;;;;7.45;2.90;;;;;;;18.37;57.16;101563.28;5075409;28;20029;-69
2022/06/20 09:06:50;;;;;;;6.47;2.33;;;;;;;17.80;59.05;101575.47;5075247;28;20506;-69
2022/06/20 09:09:15;;;;;;;13.30;3.45;;;;;;;17.23;57.34;101571.59;5075408;28;20024;-69
2022/06/20 09:12:07;;;;;;;7.97;2.43;;;;;;;16.96;60.71;101574.38;5074293;28;20028;-69
2022/06/20 09:14:47;;;;;;;5.68;2.78;;;;;;;17.41;56.41;101570.88;5075379;28;20318;-69
2022/06/20 09:17:24;;;;;;;9.77;3.10;;;;;;;18.24;53.81;101556.84;5075178;28;20078;-69
2022/06/20 09:20:07;;;;;;;5.72;2.33;;;;;;;18.98;56.50;101564.09;5074103;28;20538;-69
2022/06/20 09:22:57;;;;;;;6.43;2.40;;;;;;;19.47;54.16;101559.94;5075163;28;20387;-69
2022/06/20 09:26:16;;;;;;;4.22;2.05;;;;;;;20.05;53.70;101564.13;5074436;28;20033;-69
2022/06/20 09:29:02;;;;;;;6.07;2.67;;;;;;;20.23;52.83;101578.19;5052523;28;20423;-69
2022/06/20 09:31:43;;;;;;;5.15;2.97;;;;;;;19.60;53.79;101568.13;5052911;28;20036;-69
2022/06/20 09:34:48;;;;;;;6.47;2.80;;;;;;;19.02;54.78;101581.50;5070218;28;20040;-70
2022/06/20 09:37:49;;;;;;;6.20;2.70;;;;;;;18.94;56.13;101577.44;5075053;28;20085;-69
2022/06/20 09:40:39;;;;;;;8.52;2.88;;;;;;;19.00;54.76;101573.66;5074188;28;20033;-70
2022/06/20 09:43:19;;;;;;;4.93;2.60;;;;;;;19.31;54.09;101574.84;5074709;28;20515;-69
2022/06/20 09:45:59;;;;;;;4.95;2.42;;;;;;;19.35;51.06;101561.38;5074363;28;20523;-70
2022/06/20 09:48:34;;;;;;;6.28;2.33;;;;;;;19.38;52.01;101573.59;5073853;28;20468;-69
2022/06/20 09:51:02;;;;;;;6.25;2.85;;;;;;;19.20;53.42;101575.38;5074762;28;20052;-69
2022/06/20 09:53:39;;;;;;;7.18;2.42;;;;;;;18.88;52.63;101569.81;5073533;28;20086;-69
2022/06/20 09:56:19;;;;;;;6.38;2.90;;;;;;;18.84;54.14;101576.16;5074596;28;20111;-69
2022/06/20 09:59:04;;;;;;;7.68;2.67;;;;;;;19.45;52.52;101560.94;5074258;28;20091;-69
2022/06/20 10:01:59;;;;;;;6.47;2.88;;;;;;;20.00;52.02;101564.34;5073499;28;20029;-70
2022/06/20 10:04:59;;;;;;;5.68;2.75;;;;;;;20.58;49.92;101563.09;5074494;28;20110;-69
2022/06/20 10:07:37;;;;;;;8.98;3.25;;;;;;;20.69;48.68;101568.66;5073591;28;20047;-70
2022/06/20 10:10:13;;;;;;;5.53;3.33;;;;;;;20.29;47.34;101565.47;5073448;28;20028;-69
2022/06/20 10:12:52;;;;;;;5.75;2.90;;;;;;;20.01;48.06;101578.41;5073884;28;20461;-69
2022/06/20 10:15:24;;;;;;;8.85;2.90;;;;;;;19.97;49.26;101577.72;5073248;28;20017;-70
2022/06/20 10:18:06;;;;;;;8.05;3.20;;;;;;;20.44;50.00;101565.63;5073674;28;20120;-70
2022/06/20 10:20:45;;;;;;;7.87;3.50;;;;;;;20.69;45.55;101568.66;5073952;28;20039;-70
2022/06/20 10:23:33;;;;;;;7.53;3.60;;;;;;;20.48;48.67;101575.09;5073429;28;20032;-69
2022/06/20 10:26:17;;;;;;;9.30;4.40;;;;;;;20.58;49.51;101589.59;5072960;28;20032;-70
2022/06/20 10:29:03;;;;;;;8.23;3.70;;;;;;;21.08;48.11;101578.00;5072878;28;20024;-70
2022/06/20 10:31:43;;;;;;;9.65;3.90;;;;;;;21.64;47.61;101587.22;5073998;28;20039;-70
2022/06/20 10:34:32;;;;;;;12.98;3.97;;;;;;;21.36;48.90;101595.06;5073768;28;20479;-70
2022/06/20 10:37:09;;;;;;;8.45;3.70;;;;;;;20.73;47.94;101599.38;5072948;28;20124;-70
2022/06/20 10:40:05;;;;;;;8.30;3.50;;;;;;;20.79;51.35;101592.88;5073629;28;20108;-70
2022/06/20 10:42:39;;;;;;;9.25;3.70;;;;;;;21.26;50.64;101606.16;5073225;28;20111;-70
2022/06/20 10:45:30;;;;;;;7.85;3.25;;;;;;;21.77;48.37;101597.13;5073396;28;20418;-70
2022/06/20 10:48:14;;;;;;;7.10;3.45;;;;;;;22.12;47.51;101603.84;5073306;28;20041;-70
2022/06/20 10:50:52;;;;;;;9.18;3.53;;;;;;;22.08;42.15;101607.63;5072610;28;20041;-70
2022/06/20 10:53:39;;;;;;;6.32;3.00;;;;;;;21.70;44.96;101601.94;5073191;28;20404;-70
2022/06/20 10:56:21;;;;;;;6.13;2.85;;;;;;;21.77;45.84;101611.22;5073403;28;20129;-70
2022/06/20 10:59:08;;;;;;;6.43;3.13;;;;;;;21.89;43.80;101610.53;5072311;28;20515;-70
2022/06/20 11:01:40;;;;;;;4.90;2.70;;;;;;;21.51;44.33;101610.09;5072940;28;20029;-70
2022/06/20 11:04:32;;;;;;;6.90;2.85;;;;;;;21.33;45.58;101619.91;5072475;28;20099;-70
2022/06/20 11:07:23;;;;;;;6.87;2.70;;;;;;;21.79;45.95;101614.66;5073174;28;20170;-69
2022/06/20 11:10:10;;;;;;;8.35;3.05;;;;;;;21.98;42.99;101622.41;5072901;28;20028;-69
2022/06/20 11:12:44;;;;;;;8.45;3.47;;;;;;;21.92;42.61;101622.78;5071896;28;20036;-70
2022/06/20 11:15:09;;;;;;;8.02;3.38;;;;;;;21.70;43.88;101626.66;5073072;28;20028;-70
2022/06/20 11:17:50;;;;;;;7.10;2.90;;;;;;;21.39;44.79;101632.03;5072761;28;20032;-70
2022/06/20 11:20:33;;;;;;;7.22;3.17;;;;;;;21.15;45.87;101634.19;5073146;28;20044;-70
2022/06/20 11:23:14;;;;;;;7.05;2.75;;;;;;;21.84;45.51;101627.66;5072859;28;20020;-70
2022/06/20 11:25:57;;;;;;;6.90;2.83;;;;;;;22.06;44.41;101625.44;5072083;28;20024;-70
2022/06/20 11:28:44;;;;;;;9.35;3.30;;;;;;;22.59;43.31;101618.72;5073352;28;20032;-70
2022/06/20 11:31:36;;;;;;;6.30;2.97;;;;;;;23.36;43.72;101620.06;5072833;28;20032;-70
2022/06/20 11:34:22;;;;;;;7.38;2.90;;;;;;;23.34;41.31;101611.31;5072206;28;20040;-70
2022/06/20 11:37:12;;;;;;;7.80;3.20;;;;;;;23.14;42.09;101612.63;5072557;28;20111;-70
2022/06/20 11:39:43;;;;;;;8.07;3.20;;;;;;;22.85;41.39;101614.44;5071835;28;20024;-70
2022/06/20 11:42:08;;;;;;;8.27;3.03;;;;;;;22.71;41.36;101610.94;5072979;28;20036;-70
2022/06/20 11:45:01;;;;;;;5.45;2.53;;;;;;;22.39;45.04;101624.41;5072552;28;20029;-70
2022/06/20 11:47:29;;;;;;;9.07;3.00;;;;;;;21.93;43.62;101619.16;5071949;28;20488;-70
2022/06/20 11:50:32;;;;;;;8.18;2.83;;;;;;;22.32;46.50;101615.09;5072416;28;20043;-70
2022/06/20 11:53:09;;;;;;;10.07;3.13;;;;;;;24.12;40.78;101615.09;5071592;28;20040;-71
2022/06/20 11:55:43;;;;;;;6.40;3.17;;;;;;;26.09;38.56;101600.81;5072547;28;20028;-70
2022/06/20 11:58:18;;;;;;;6.43;2.92;;;;;;;27.77;36.05;101596.31;5072782;28;20029;-70
2022/06/20 12:01:02;;;;;;;6.50;2.40;;;;;;;29.46;34.42;101606.47;5071665;28;20036;-70
2022/06/20 12:03:34;;;;;;;6.35;2.50;;;;;;;30.79;30.80;101593.09;5072748;28;20082;-70
2022/06/20 12:06:24;;;;;;;8.93;2.70;;;;;;;32.36;30.69;101588.94;5072921;28;20032;-70
2022/06/20 12:09:06;;;;;;;3.97;2.00;;;;;;;32.43;27.45;101591.88;5071273;28;20027;-70
2022/06/20 12:11:44;;;;;;;4.13;2.20;;;;;;;29.90;28.98;101604.25;5072769;28;20040;-70
2022/06/20 12:14:18;;;;;;;5.88;2.42;;;;;;;27.72;31.04;101611.84;5071868;28;20089;-70